createdAt,value
2023-03-05T00:03:38.787Z,97.62
2023-03-05T00:08:42.866Z,97.74
2023-03-05T00:13:47.051Z,97.81
2023-03-05T00:18:52.799Z,98.10
2023-03-05T00:23:57.806Z,98.41
2023-03-05T00:29:02.208Z,98.69
2023-03-05T00:34:09.938Z,98.43
2023-03-05T00:39:14.760Z,98.40
2023-03-05T00:44:18.935Z,99.34
2023-03-05T00:49:24.461Z,99.23
2023-03-05T00:54:29.992Z,100.00
2023-03-05T00:59:34.810Z,100.00
2023-03-05T01:04:40.652Z,100.00
2023-03-05T01:09:44.829Z,100.00
2023-03-05T01:14:49.030Z,100.00
2023-03-05T01:19:54.599Z,100.00
2023-03-05T01:24:58.996Z,100.00
2023-03-05T01:30:03.387Z,100.00
2023-03-05T01:35:10.172Z,99.59
2023-03-05T01:40:17.583Z,98.40
2023-03-05T01:45:21.704Z,96.34
2023-03-05T01:50:28.984Z,95.98
2023-03-05T01:55:37.417Z,95.25
2023-03-05T02:00:46.837Z,95.07
2023-03-05T02:05:52.869Z,94.62
2023-03-05T02:10:58.201Z,93.89
2023-03-05T02:16:03.659Z,94.56
2023-03-05T02:21:10.708Z,95.53
2023-03-05T02:26:15.086Z,93.65
2023-03-05T02:31:21.892Z,93.19
2023-03-05T02:36:27.967Z,92.02
2023-03-05T02:41:32.358Z,90.46
2023-03-05T02:46:36.904Z,88.41
2023-03-05T02:51:43.426Z,87.93
2023-03-05T02:56:47.956Z,85.52
2023-03-05T03:01:52.257Z,86.51
2023-03-05T03:06:57.829Z,87.28
2023-03-05T03:12:02.187Z,86.09
2023-03-05T03:17:07.407Z,86.08
2023-03-05T03:22:15.253Z,87.04
2023-03-05T03:27:19.581Z,87.83
2023-03-05T03:32:23.794Z,90.31
2023-03-05T03:37:30.087Z,90.69
2023-03-05T03:42:34.670Z,91.54
2023-03-05T03:47:38.821Z,93.09
2023-03-05T03:52:44.651Z,94.05
2023-03-05T03:57:48.742Z,94.42
2023-03-05T04:02:52.927Z,92.83
2023-03-05T04:08:00.173Z,91.35
2023-03-05T04:13:04.330Z,89.01
2023-03-05T04:18:08.552Z,88.49
2023-03-05T04:23:14.217Z,91.65
2023-03-05T04:28:19.081Z,92.72
2023-03-05T04:33:23.729Z,91.32
2023-03-05T04:38:29.386Z,88.52
2023-03-05T04:43:33.629Z,87.18
2023-03-05T04:48:37.712Z,87.38
2023-03-05T04:53:43.235Z,88.32
2023-03-05T04:58:47.683Z,90.78
2023-03-05T05:03:51.993Z,90.91
2023-03-05T05:08:57.676Z,92.04
2023-03-05T05:14:02.168Z,93.35
2023-03-05T05:19:06.761Z,95.54
2023-03-05T05:24:12.658Z,94.41
2023-03-05T05:29:16.878Z,95.02
2023-03-05T05:34:20.944Z,96.01
2023-03-05T05:39:26.533Z,94.04
2023-03-05T05:44:30.690Z,95.56
2023-03-05T05:49:35.683Z,96.85
2023-03-05T05:54:41.662Z,97.50
2023-03-05T05:59:45.814Z,97.85
2023-03-05T06:04:50.682Z,97.62
2023-03-05T06:09:56.493Z,97.69
2023-03-05T06:15:00.826Z,97.46
2023-03-05T06:20:06.982Z,98.13
2023-03-05T06:25:13.076Z,100.00
2023-03-05T06:30:17.720Z,100.00
2023-03-05T06:35:22.849Z,100.00
2023-03-05T06:40:28.502Z,100.00
2023-03-05T06:45:32.840Z,100.00
2023-03-05T06:50:37.640Z,100.00
2023-03-05T06:55:43.238Z,100.00
2023-03-05T07:00:47.494Z,100.00
2023-03-05T07:05:51.709Z,100.00
2023-03-05T07:10:57.621Z,100.00
2023-03-05T07:16:05.964Z,100.00
2023-03-05T07:21:13.302Z,100.00
2023-03-05T07:26:19.083Z,100.00
2023-03-05T07:31:27.601Z,100.00
2023-03-05T07:36:35.171Z,100.00
2023-03-05T07:41:40.913Z,100.00
2023-03-05T07:46:45.972Z,100.00
2023-03-05T07:51:50.125Z,100.00
2023-03-05T07:56:56.225Z,100.00
2023-03-05T08:02:00.994Z,100.00
2023-03-05T08:07:05.790Z,100.00
2023-03-05T08:12:11.853Z,100.00
2023-03-05T08:17:16.307Z,100.00
2023-03-05T08:22:20.712Z,100.00
2023-03-05T08:27:26.242Z,100.00
2023-03-05T08:32:30.704Z,100.00
2023-03-05T08:37:35.283Z,100.00
2023-03-05T08:42:40.843Z,100.00
2023-03-05T08:47:45.277Z,100.00
2023-03-05T08:52:49.752Z,100.00
2023-03-05T08:57:55.793Z,100.00
2023-03-05T09:03:00.739Z,100.00
2023-03-05T09:08:05.024Z,100.00
2023-03-05T09:13:11.534Z,100.00
2023-03-05T09:18:15.732Z,100.00
2023-03-05T09:23:20.245Z,100.00
2023-03-05T09:28:26.123Z,100.00
2023-03-05T09:33:30.392Z,100.00
2023-03-05T09:38:36.585Z,100.00
2023-03-05T09:43:51.844Z,100.00
2023-03-05T09:49:04.320Z,100.00
2023-03-05T09:54:14.552Z,100.00
2023-03-05T09:59:31.933Z,100.00
2023-03-05T10:04:46.508Z,100.00
2023-03-05T10:09:56.364Z,100.00
2023-03-05T10:15:03.438Z,100.00
2023-03-05T10:20:33.466Z,100.00
2023-03-05T10:25:53.563Z,100.00
2023-03-05T10:31:19.022Z,100.00
2023-03-05T10:36:46.990Z,100.00
2023-03-05T10:42:02.615Z,100.00
2023-03-05T10:47:17.187Z,100.00
2023-03-05T10:52:26.703Z,100.00
2023-03-05T10:57:32.677Z,100.00
2023-03-05T11:02:55.297Z,100.00
2023-03-05T11:07:59.531Z,100.00
2023-03-05T11:13:25.221Z,100.00
2023-03-05T11:18:34.603Z,100.00
2023-03-05T11:23:40.308Z,100.00
2023-03-05T11:28:58.219Z,99.82
2023-03-05T11:34:05.719Z,94.27
2023-03-05T11:39:17.255Z,91.19
2023-03-05T11:44:24.320Z,90.55
2023-03-05T11:49:34.121Z,90.50
2023-03-05T11:54:50.009Z,88.33
2023-03-05T11:59:57.095Z,87.93
2023-03-05T12:05:03.594Z,88.28
2023-03-05T12:10:08.583Z,88.07
2023-03-05T12:15:37.209Z,87.43
2023-03-05T12:20:50.092Z,83.70
2023-03-05T12:25:57.226Z,81.15
2023-03-05T12:31:02.743Z,76.48
2023-03-05T12:36:39.884Z,73.61
2023-03-05T12:41:45.087Z,72.33
2023-03-05T12:47:19.419Z,73.22
2023-03-05T12:52:31.840Z,75.43
2023-03-05T12:57:38.117Z,75.00
2023-03-05T13:02:45.642Z,77.63
2023-03-05T13:07:52.950Z,75.48
2023-03-05T13:12:59.666Z,75.46
2023-03-05T13:18:08.721Z,76.21
2023-03-05T13:23:20.851Z,81.45
2023-03-05T13:28:25.597Z,84.25
2023-03-05T13:33:32.595Z,86.94
2023-03-05T13:38:41.722Z,87.75
2023-03-05T13:43:46.610Z,87.97
2023-03-05T13:48:51.831Z,86.37
2023-03-05T13:53:57.790Z,85.84
2023-03-05T13:59:02.428Z,85.76
2023-03-05T14:04:18.903Z,84.24
2023-03-05T14:09:27.229Z,83.51
2023-03-05T14:14:35.824Z,82.05
2023-03-05T14:19:40.760Z,84.20
2023-03-05T14:24:54.222Z,87.91
2023-03-05T14:29:58.952Z,91.26
2023-03-05T14:35:05.660Z,92.29
2023-03-05T14:40:22.618Z,91.99
2023-03-05T14:45:29.360Z,89.76
2023-03-05T14:50:36.325Z,90.19
2023-03-05T14:55:43.872Z,89.33
2023-03-05T15:00:50.103Z,88.36
2023-03-05T15:05:58.155Z,88.83
2023-03-05T15:11:04.458Z,90.14
2023-03-05T15:16:09.990Z,91.12
2023-03-05T15:21:14.177Z,91.14
2023-03-05T15:26:19.833Z,91.08
2023-03-05T15:31:25.024Z,91.42
2023-03-05T15:36:29.503Z,92.11
2023-03-05T15:41:35.066Z,92.32
2023-03-05T15:46:39.350Z,93.52
2023-03-05T15:51:44.630Z,94.83
2023-03-05T15:56:50.521Z,98.49
2023-03-05T16:01:54.892Z,100.00
2023-03-05T16:07:00.581Z,100.00
2023-03-05T16:12:10.326Z,100.00
2023-03-05T16:17:16.720Z,100.00
2023-03-05T16:22:21.342Z,100.00
2023-03-05T16:27:27.581Z,100.00
2023-03-05T16:32:32.298Z,100.00
2023-03-05T16:37:36.778Z,100.00
2023-03-05T16:42:42.612Z,100.00
2023-03-05T16:47:46.810Z,100.00
2023-03-05T16:52:51.654Z,100.00
2023-03-05T16:57:57.428Z,100.00
2023-03-05T17:03:02.682Z,100.00
2023-03-05T17:08:07.759Z,100.00
2023-03-05T17:13:13.667Z,100.00
2023-03-05T17:18:17.806Z,100.00
2023-03-05T17:23:22.107Z,100.00
2023-03-05T17:28:28.104Z,100.00
2023-03-05T17:33:33.027Z,100.00
2023-03-05T17:38:37.156Z,100.00
2023-03-05T17:43:43.155Z,100.00
2023-03-05T17:48:48.729Z,100.00
2023-03-05T17:53:53.126Z,100.00
2023-03-05T17:58:58.804Z,100.00
2023-03-05T18:04:03.440Z,100.00
2023-03-05T18:09:07.771Z,100.00
2023-03-05T18:14:15.794Z,100.00
2023-03-05T18:19:21.018Z,100.00
2023-03-05T18:24:25.619Z,100.00
2023-03-05T18:29:31.289Z,100.00
2023-03-05T18:34:35.567Z,100.00
2023-03-05T18:39:39.813Z,100.00
2023-03-05T18:44:45.563Z,100.00
2023-03-05T18:49:49.994Z,100.00
2023-03-05T18:54:54.544Z,100.00
2023-03-05T19:00:00.471Z,100.00
2023-03-05T19:05:05.080Z,100.00
2023-03-05T19:10:12.025Z,100.00
2023-03-05T19:15:18.661Z,100.00
2023-03-05T19:20:23.327Z,100.00
2023-03-05T19:25:27.487Z,100.00
2023-03-05T19:30:33.338Z,100.00
2023-03-05T19:35:37.714Z,100.00
2023-03-05T19:40:42.669Z,100.00
2023-03-05T19:45:48.332Z,100.00
2023-03-05T19:50:52.481Z,100.00
2023-03-05T19:55:56.753Z,100.00
2023-03-05T20:01:11.092Z,100.00
2023-03-05T20:06:16.152Z,100.00
2023-03-05T20:11:21.205Z,100.00
2023-03-05T20:16:29.925Z,100.00
2023-03-05T20:21:37.398Z,100.00
2023-03-05T20:26:42.664Z,100.00
2023-03-05T20:31:50.211Z,100.00
2023-03-05T20:36:54.593Z,100.00
2023-03-05T20:41:58.976Z,100.00
2023-03-05T20:47:44.856Z,100.00
2023-03-05T20:52:49.540Z,100.00
2023-03-05T20:57:54.187Z,100.00
2023-03-05T21:03:00.051Z,100.00
2023-03-05T21:08:05.926Z,100.00
2023-03-05T21:13:10.260Z,100.00
2023-03-05T21:18:16.321Z,100.00
2023-03-05T21:23:20.519Z,100.00
2023-03-05T21:28:25.670Z,100.00
2023-03-05T21:33:31.941Z,100.00
2023-03-05T21:38:36.265Z,100.00
2023-03-05T21:43:40.530Z,100.00
2023-03-05T21:48:46.408Z,100.00
2023-03-05T21:53:51.159Z,100.00
2023-03-05T21:58:55.485Z,100.00
2023-03-05T22:04:01.109Z,100.00
2023-03-05T22:09:05.500Z,100.00
2023-03-05T22:14:10.473Z,100.00
2023-03-05T22:19:16.260Z,100.00
2023-03-05T22:24:21.992Z,100.00
2023-03-05T22:29:27.018Z,100.00
2023-03-05T22:34:33.022Z,100.00
2023-03-05T22:39:37.431Z,100.00
2023-03-05T22:44:41.835Z,100.00
2023-03-05T22:49:47.696Z,100.00
2023-03-05T22:54:53.372Z,100.00
2023-03-05T22:59:58.707Z,100.00
2023-03-05T23:05:04.403Z,100.00
2023-03-05T23:10:12.275Z,100.00
2023-03-05T23:15:18.457Z,100.00
2023-03-05T23:20:26.428Z,100.00
2023-03-05T23:25:33.291Z,100.00
2023-03-05T23:30:39.742Z,100.00
2023-03-05T23:35:51.874Z,100.00
2023-03-05T23:41:00.503Z,100.00
2023-03-05T23:46:10.852Z,100.00
2023-03-05T23:51:17.616Z,100.00
2023-03-05T23:56:23.094Z,100.00
